Time;durP1;ratioP1;P1;durP2;ratioP2;P2;SDS_P1;SDS_P2;PMS_P1;PMS_P2;Temp;Humidity;BMP_temperature;BMP_pressure;BME280_temperature;BME280_humidity;BME280_pressure;Samples;Min_cycle;Max_cycle;Signal;HPM_P1;HPM_P2
2023/07/01 00:00:47;;;;;;;3.27;2.97;;;13.80;99.90;;;;;;466402;253;28647;-79
2023/07/01 00:02:48;;;;;;;3.10;2.80;;;13.80;99.90;;;;;;470608;251;28826;-78
2023/07/01 00:04:49;;;;;;;3.70;2.77;;;13.80;99.90;;;;;;466391;253;29537;-79
2023/07/01 00:06:51;;;;;;;4.10;3.40;;;13.70;99.90;;;;;;470667;251;29266;-78
2023/07/01 00:08:53;;;;;;;2.80;2.60;;;13.60;99.90;;;;;;466427;253;28595;-79
2023/07/01 00:10:53;;;;;;;3.90;3.20;;;13.60;99.90;;;;;;470594;252;28809;-79
2023/07/01 00:12:54;;;;;;;2.87;2.67;;;13.60;99.90;;;;;;466410;253;28533;-79
2023/07/01 00:14:56;;;;;;;3.00;2.63;;;13.50;99.90;;;;;;470641;251;28449;-79
2023/07/01 00:16:58;;;;;;;3.00;2.73;;;13.50;99.90;;;;;;466436;253;28440;-79
2023/07/01 00:18:58;;;;;;;3.70;2.70;;;13.50;99.90;;;;;;470641;251;28208;-79
2023/07/01 00:20:59;;;;;;;3.27;2.97;;;13.50;99.90;;;;;;466383;255;28641;-79
2023/07/01 00:23:01;;;;;;;2.90;2.70;;;13.50;99.90;;;;;;470617;251;28340;-79
2023/07/01 00:25:02;;;;;;;3.30;3.00;;;13.40;99.90;;;;;;466302;255;28715;-78
2023/07/01 00:27:03;;;;;;;5.33;3.40;;;13.40;99.90;;;;;;470601;251;29048;-79
2023/07/01 00:29:04;;;;;;;3.93;3.00;;;13.30;99.90;;;;;;466402;253;28824;-79
2023/07/01 00:31:06;;;;;;;3.07;2.77;;;13.30;99.90;;;;;;470600;251;29007;-79
2023/07/01 00:33:07;;;;;;;5.90;2.73;;;13.30;99.90;;;;;;466375;253;28970;-78
2023/07/01 00:35:09;;;;;;;3.57;2.67;;;;;;;;;;470635;251;28277;-78
2023/07/01 00:37:11;;;;;;;5.03;2.87;;;13.20;99.90;;;;;;466347;255;26548;-79
2023/07/01 00:39:12;;;;;;;2.93;2.57;;;13.30;99.90;;;;;;470587;251;28467;-79
2023/07/01 00:41:14;;;;;;;7.27;2.70;;;13.30;99.90;;;;;;466306;253;30010;-79
2023/07/01 00:43:14;;;;;;;3.10;2.83;;;13.20;99.90;;;;;;470565;252;28755;-78
2023/07/01 00:45:16;;;;;;;2.67;2.47;;;13.20;99.90;;;;;;466378;253;29034;-78
2023/07/01 00:47:17;;;;;;;3.33;2.60;;;13.20;99.90;;;;;;470614;251;28390;-78
2023/07/01 00:49:18;;;;;;;3.50;2.50;;;13.20;99.90;;;;;;466387;253;28381;-78
2023/07/01 00:51:19;;;;;;;3.37;2.47;;;13.20;99.90;;;;;;470591;251;28268;-79
2023/07/01 00:53:21;;;;;;;3.70;2.93;;;13.20;99.90;;;;;;466394;253;28481;-79
2023/07/01 00:55:22;;;;;;;3.70;2.83;;;13.20;99.90;;;;;;470472;251;28268;-78
2023/07/01 00:57:23;;;;;;;2.53;2.33;;;13.10;99.90;;;;;;466350;253;28482;-79
2023/07/01 00:59:25;;;;;;;3.30;3.00;;;13.20;99.90;;;;;;470507;251;28255;-79
2023/07/01 01:01:26;;;;;;;3.20;2.90;;;13.10;99.90;;;;;;466205;253;28447;-79
2023/07/01 01:03:27;;;;;;;3.20;2.87;;;13.20;99.90;;;;;;470525;251;28363;-79
2023/07/01 01:05:28;;;;;;;3.90;3.43;;;13.00;99.90;;;;;;466312;253;28913;-79
2023/07/01 01:07:29;;;;;;;3.10;2.83;;;13.00;99.90;;;;;;470582;251;28302;-79
2023/07/01 01:09:31;;;;;;;3.30;3.00;;;13.00;99.90;;;;;;466303;255;28661;-79
2023/07/01 01:11:32;;;;;;;3.20;2.70;;;13.00;99.90;;;;;;470497;249;29918;-79
2023/07/01 01:13:33;;;;;;;2.87;2.57;;;13.00;99.90;;;;;;466364;253;28933;-77
2023/07/01 01:15:34;;;;;;;2.97;2.60;;;13.10;99.90;;;;;;470630;251;28624;-78
2023/07/01 01:17:36;;;;;;;4.20;2.93;;;13.10;99.90;;;;;;466404;253;28930;-78
2023/07/01 01:19:37;;;;;;;4.23;2.90;;;13.10;99.90;;;;;;470597;251;28232;-77
2023/07/01 01:21:38;;;;;;;3.13;2.37;;;13.10;99.90;;;;;;466385;253;28694;-79
2023/07/01 01:23:39;;;;;;;4.63;2.90;;;13.10;99.90;;;;;;470621;251;28109;-78
2023/07/01 01:25:41;;;;;;;2.20;2.10;;;13.00;99.90;;;;;;466422;253;28303;-78
2023/07/01 01:27:42;;;;;;;3.20;2.67;;;13.00;99.90;;;;;;470648;251;28263;-78
2023/07/01 01:29:43;;;;;;;2.90;2.70;;;13.00;99.90;;;;;;466424;253;28345;-79
2023/07/01 01:31:44;;;;;;;5.47;2.97;;;12.90;99.90;;;;;;470645;251;28341;-78
2023/07/01 01:33:46;;;;;;;3.27;2.87;;;12.90;99.90;;;;;;466418;253;28393;-78
2023/07/01 01:35:47;;;;;;;3.83;2.60;;;12.90;99.90;;;;;;470659;251;28713;-79
2023/07/01 01:37:48;;;;;;;2.80;2.60;;;12.90;99.90;;;;;;466402;253;28894;-79
2023/07/01 01:39:49;;;;;;;4.67;2.67;;;12.90;99.90;;;;;;470615;251;28774;-79
2023/07/01 01:41:51;;;;;;;2.80;2.60;;;12.90;99.90;;;;;;466375;253;29366;-79
2023/07/01 01:43:52;;;;;;;3.80;3.10;;;12.80;99.90;;;;;;470605;251;28316;-78
2023/07/01 01:45:53;;;;;;;4.37;2.60;;;12.70;99.90;;;;;;466425;253;28292;-78
2023/07/01 01:47:55;;;;;;;2.70;2.50;;;12.60;99.90;;;;;;470392;252;28299;-79
2023/07/01 01:49:56;;;;;;;3.43;3.13;;;12.60;99.90;;;;;;466384;253;28271;-79
2023/07/01 01:51:57;;;;;;;2.80;2.60;;;12.70;99.90;;;;;;470396;252;28109;-79
2023/07/01 01:53:58;;;;;;;2.90;2.70;;;12.80;99.90;;;;;;466357;253;28190;-78
2023/07/01 01:56:00;;;;;;;3.10;2.50;;;12.80;99.90;;;;;;470619;251;28340;-78
2023/07/01 01:58:01;;;;;;;2.77;2.50;;;12.70;99.90;;;;;;466189;255;28804;-79
2023/07/01 02:00:08;;;;;;;4.50;3.00;;;12.70;99.90;;;;;;470525;252;28195;-79
2023/07/01 02:02:03;;;;;;;4.83;2.63;;;12.80;99.90;;;;;;465983;255;28355;-79
2023/07/01 02:04:05;;;;;;;3.77;2.70;;;12.70;99.90;;;;;;470593;251;28674;-78
2023/07/01 02:06:06;;;;;;;2.70;2.40;;;12.70;99.90;;;;;;466354;252;28912;-79
2023/07/01 02:08:07;;;;;;;3.40;2.60;;;12.70;99.90;;;;;;470609;249;28548;-78
2023/07/01 02:10:08;;;;;;;3.23;2.90;;;12.60;99.90;;;;;;466394;253;28359;-78
2023/07/01 02:12:11;;;;;;;3.20;2.80;;;;;;;;;;470615;251;28422;-78
2023/07/01 02:14:12;;;;;;;5.07;2.80;;;12.60;99.90;;;;;;470614;252;26571;-78
2023/07/01 02:16:13;;;;;;;3.20;2.90;;;12.70;99.90;;;;;;466343;253;28734;-78
2023/07/01 02:18:14;;;;;;;2.63;2.43;;;12.60;99.90;;;;;;470597;251;28609;-78
2023/07/01 02:20:16;;;;;;;3.40;3.10;;;12.60;99.90;;;;;;466370;253;28710;-78
2023/07/01 02:22:17;;;;;;;2.93;2.63;;;12.60;99.90;;;;;;470571;251;28224;-79
2023/07/01 02:24:18;;;;;;;4.70;2.80;;;12.60;99.90;;;;;;466349;253;28401;-78
2023/07/01 02:26:19;;;;;;;3.80;3.23;;;12.50;99.90;;;;;;470577;251;28176;-79
2023/07/01 02:28:21;;;;;;;5.17;3.00;;;12.40;99.90;;;;;;466383;253;28294;-78
2023/07/01 02:30:22;;;;;;;6.50;3.00;;;12.50;99.90;;;;;;470594;251;28205;-78
2023/07/01 02:32:23;;;;;;;6.00;2.77;;;12.50;99.90;;;;;;466366;253;28471;-78
2023/07/01 02:34:25;;;;;;;3.83;3.00;;;12.50;99.90;;;;;;470619;251;28044;-79
2023/07/01 02:36:26;;;;;;;4.87;2.43;;;12.50;99.90;;;;;;466373;253;28240;-78
2023/07/01 02:38:27;;;;;;;3.90;3.50;;;12.60;99.90;;;;;;470605;251;28259;-79
2023/07/01 02:40:28;;;;;;;2.93;2.73;;;12.60;99.90;;;;;;466361;253;29964;-78
2023/07/01 02:42:29;;;;;;;2.90;2.67;;;12.70;99.90;;;;;;470589;251;28697;-79
2023/07/01 02:44:31;;;;;;;2.77;2.30;;;12.70;99.90;;;;;;466420;253;28700;-78
2023/07/01 02:46:32;;;;;;;4.27;3.03;;;12.70;99.90;;;;;;470597;251;28575;-79
2023/07/01 02:48:33;;;;;;;3.17;2.50;;;12.70;99.90;;;;;;466380;253;28285;-78
2023/07/01 02:50:34;;;;;;;4.00;2.93;;;12.60;99.90;;;;;;470609;251;28009;-78
2023/07/01 02:52:36;;;;;;;5.43;2.80;;;12.60;99.90;;;;;;466418;253;28350;-78
2023/07/01 02:54:40;;;;;;;3.40;3.10;;;12.60;99.90;;;;;;470666;251;28209;-78
2023/07/01 02:56:38;;;;;;;3.70;2.80;;;12.70;99.90;;;;;;462398;256;28261;-79
2023/07/01 02:58:39;;;;;;;6.53;2.90;;;12.80;99.90;;;;;;466436;253;28942;-77
2023/07/01 03:00:41;;;;;;;3.90;2.73;;;12.90;99.90;;;;;;470593;251;28246;-78
2023/07/01 03:02:42;;;;;;;2.63;2.43;;;12.90;99.90;;;;;;466386;253;28531;-79
2023/07/01 03:06:54;;;;;;;4.03;2.50;;;13.10;99.90;;;;;;475070;240;28781;-78
2023/07/01 03:08:55;;;;;;;3.17;2.60;;;13.10;99.90;;;;;;469222;252;28795;-79
2023/07/01 03:10:56;;;;;;;5.33;2.30;;;13.20;99.90;;;;;;470437;253;28189;-78
2023/07/01 03:12:57;;;;;;;2.57;2.37;;;13.30;99.90;;;;;;469243;253;28428;-79
2023/07/01 03:14:59;;;;;;;3.40;2.97;;;13.20;99.90;;;;;;477049;235;28296;-80
2023/07/01 03:17:00;;;;;;;3.17;2.87;;;13.10;99.90;;;;;;493279;241;28082;-79
2023/07/01 03:19:02;;;;;;;2.97;2.60;;;13.10;99.90;;;;;;493270;241;28154;-79
2023/07/01 03:21:02;;;;;;;3.30;2.43;;;13.10;99.90;;;;;;493242;241;28104;-79
2023/07/01 03:23:04;;;;;;;3.37;2.90;;;13.20;99.90;;;;;;493289;241;28656;-79
2023/07/01 03:25:07;;;;;;;2.60;2.40;;;13.30;99.90;;;;;;493293;241;28146;-79
2023/07/01 03:27:06;;;;;;;3.40;2.53;;;13.40;99.90;;;;;;493160;241;28391;-79
2023/07/01 03:29:07;;;;;;;2.90;2.63;;;13.50;99.90;;;;;;493262;241;28867;-79
2023/07/01 03:31:09;;;;;;;2.63;2.30;;;13.60;99.90;;;;;;493277;241;28949;-79
2023/07/01 03:33:12;;;;;;;3.10;2.40;;;13.60;99.90;;;;;;493326;241;29078;-79
2023/07/01 03:35:11;;;;;;;2.60;2.40;;;13.70;99.90;;;;;;493256;241;28689;-79
2023/07/01 03:37:12;;;;;;;3.03;2.50;;;13.80;99.90;;;;;;493300;241;28448;-79
2023/07/01 03:39:16;;;;;;;4.17;2.80;;;13.90;99.90;;;;;;493239;241;28370;-79
2023/07/01 03:41:15;;;;;;;2.10;1.90;;;13.90;99.90;;;;;;493226;241;28395;-79
2023/07/01 03:43:16;;;;;;;4.50;2.77;;;14.00;99.90;;;;;;493326;241;28484;-79
2023/07/01 03:45:17;;;;;;;5.13;2.50;;;14.00;99.90;;;;;;493313;241;28378;-79
2023/07/01 03:47:19;;;;;;;2.93;2.23;;;14.10;99.90;;;;;;493316;241;28485;-79
2023/07/01 03:49:20;;;;;;;3.40;2.70;;;14.10;99.90;;;;;;493294;241;28806;-79
2023/07/01 03:51:21;;;;;;;7.57;2.40;;;14.10;99.90;;;;;;493247;241;28726;-79
2023/07/01 03:53:22;;;;;;;3.17;2.30;;;14.10;99.90;;;;;;493261;241;28689;-79
2023/07/01 03:55:25;;;;;;;8.53;2.33;;;14.10;99.90;;;;;;493313;241;29130;-79
2023/07/01 03:57:25;;;;;;;6.40;2.50;;;14.20;99.90;;;;;;493272;241;29162;-79
2023/07/01 03:59:26;;;;;;;3.77;2.40;;;14.30;99.90;;;;;;493262;241;29249;-79
2023/07/01 04:01:29;;;;;;;4.97;2.50;;;14.30;99.90;;;;;;493317;241;28811;-79
2023/07/01 04:03:29;;;;;;;3.63;2.20;;;14.30;99.90;;;;;;493233;241;28759;-79
2023/07/01 04:05:30;;;;;;;5.90;2.50;;;14.30;99.90;;;;;;493315;241;28694;-79
2023/07/01 04:07:31;;;;;;;4.43;2.53;;;14.40;99.90;;;;;;493308;241;28779;-80
2023/07/01 04:09:32;;;;;;;3.80;2.50;;;14.50;99.90;;;;;;493319;241;28670;-79
2023/07/01 04:11:34;;;;;;;3.53;2.67;;;14.50;99.90;;;;;;493308;241;28431;-79
2023/07/01 04:13:35;;;;;;;4.47;2.70;;;14.50;99.90;;;;;;493301;241;28725;-79
2023/07/01 04:15:36;;;;;;;5.80;2.90;;;14.50;99.90;;;;;;493319;241;28740;-79
2023/07/01 04:17:37;;;;;;;3.23;2.93;;;14.50;99.90;;;;;;493356;241;28712;-80
2023/07/01 04:19:39;;;;;;;3.80;2.30;;;14.50;99.90;;;;;;493330;241;29113;-79
2023/07/01 04:21:40;;;;;;;4.60;2.70;;;14.50;99.90;;;;;;493339;241;29192;-79
2023/07/01 04:23:41;;;;;;;4.60;2.80;;;14.50;99.90;;;;;;493316;241;29044;-80
2023/07/01 04:25:43;;;;;;;5.10;2.90;;;14.60;99.90;;;;;;493343;241;29186;-79
2023/07/01 04:27:44;;;;;;;3.60;2.70;;;14.70;99.90;;;;;;493342;241;28693;-79
2023/07/01 04:29:45;;;;;;;3.57;2.60;;;14.60;99.90;;;;;;493305;241;28654;-79
2023/07/01 04:31:46;;;;;;;2.63;2.43;;;14.60;99.90;;;;;;493300;241;28697;-79
2023/07/01 04:33:47;;;;;;;4.03;2.13;;;14.60;99.90;;;;;;493256;241;28748;-80
2023/07/01 04:35:49;;;;;;;3.43;2.50;;;14.70;99.90;;;;;;493267;241;28673;-78
2023/07/01 04:37:50;;;;;;;5.57;2.60;;;14.70;99.90;;;;;;493311;241;28788;-79
2023/07/01 04:39:51;;;;;;;4.20;2.77;;;14.70;99.90;;;;;;493317;241;28710;-79
2023/07/01 04:41:52;;;;;;;3.30;2.57;;;14.80;99.90;;;;;;493237;241;28689;-80
2023/07/01 04:43:54;;;;;;;4.77;2.27;;;14.80;99.90;;;;;;493264;241;28689;-79
2023/07/01 04:45:55;;;;;;;3.07;2.30;;;14.80;99.90;;;;;;493289;241;29129;-79
2023/07/01 04:47:56;;;;;;;3.30;2.50;;;14.80;99.90;;;;;;493282;241;29222;-79
2023/07/01 04:49:57;;;;;;;2.60;2.40;;;14.80;99.90;;;;;;493316;241;29196;-79
2023/07/01 04:51:59;;;;;;;3.93;2.43;;;14.90;99.90;;;;;;493293;241;28698;-79
2023/07/01 04:54:00;;;;;;;3.83;2.37;;;15.00;99.90;;;;;;493291;241;28693;-79
2023/07/01 04:56:01;;;;;;;2.50;2.23;;;14.90;99.90;;;;;;493270;241;28690;-79
2023/07/01 04:58:02;;;;;;;3.13;2.47;;;15.00;99.90;;;;;;493321;241;28818;-79
2023/07/01 05:00:05;;;;;;;6.23;3.00;;;15.00;99.90;;;;;;493312;241;28665;-80
2023/07/01 05:02:05;;;;;;;4.80;3.73;;;15.00;99.90;;;;;;493268;241;28800;-79
2023/07/01 05:04:06;;;;;;;11.10;8.03;;;15.10;99.90;;;;;;493263;241;28732;-79
2023/07/01 05:06:07;;;;;;;8.93;5.50;;;15.10;99.90;;;;;;493298;241;28706;-80
2023/07/01 05:08:09;;;;;;;5.67;3.73;;;15.20;99.90;;;;;;493297;241;28810;-79
2023/07/01 05:10:10;;;;;;;5.53;3.47;;;15.30;99.90;;;;;;493300;241;29189;-79
2023/07/01 05:12:13;;;;;;;4.60;2.60;;;15.30;99.90;;;;;;493270;241;29273;-79
2023/07/01 05:14:12;;;;;;;2.90;2.50;;;15.30;99.90;;;;;;493202;241;29149;-79
2023/07/01 05:16:14;;;;;;;2.30;2.10;;;15.30;99.90;;;;;;493286;241;28708;-79
2023/07/01 05:18:15;;;;;;;4.70;3.00;;;15.40;99.90;;;;;;493315;241;28781;-79
2023/07/01 05:20:16;;;;;;;3.50;2.60;;;15.40;99.90;;;;;;493306;241;28662;-80
2023/07/01 05:22:17;;;;;;;6.60;3.07;;;15.50;99.90;;;;;;493251;241;28701;-80
2023/07/01 05:24:33;;;;;;;2.80;2.47;;;15.50;99.90;;;;;;493300;241;28666;-79
2023/07/01 05:26:20;;;;;;;5.47;2.80;;;15.60;99.90;;;;;;479441;244;28783;-79
2023/07/01 05:28:21;;;;;;;2.33;2.10;;;15.50;99.90;;;;;;488127;243;29245;-79
2023/07/01 05:30:22;;;;;;;7.33;2.77;;;15.50;99.90;;;;;;494420;240;28801;-80
2023/07/01 05:32:24;;;;;;;2.87;2.63;;;15.60;99.90;;;;;;494385;239;28716;-79
2023/07/01 05:34:25;;;;;;;5.43;2.70;;;15.70;99.90;;;;;;494403;239;29118;-80
2023/07/01 05:36:26;;;;;;;3.93;2.80;;;15.80;99.90;;;;;;494377;240;29421;-80
2023/07/01 05:38:27;;;;;;;2.67;2.47;;;16.00;99.90;;;;;;494393;239;29275;-80
2023/07/01 05:40:29;;;;;;;4.43;2.77;;;16.10;99.90;;;;;;494401;239;29138;-80
2023/07/01 05:42:30;;;;;;;5.40;2.80;;;16.10;99.90;;;;;;494356;239;29095;-79
2023/07/01 05:44:31;;;;;;;8.10;3.00;;;16.00;99.90;;;;;;494358;239;28810;-79
2023/07/01 05:46:32;;;;;;;4.90;2.57;;;16.00;99.90;;;;;;494358;240;28714;-79
2023/07/01 05:48:34;;;;;;;4.90;2.60;;;16.00;99.90;;;;;;494330;239;28686;-79
2023/07/01 05:50:36;;;;;;;3.00;2.60;;;16.20;99.90;;;;;;494379;239;28682;-80
2023/07/01 05:52:36;;;;;;;7.97;2.27;;;16.40;99.90;;;;;;494368;240;28775;-79
2023/07/01 05:56:48;;;;;;;5.70;2.73;;;16.40;99.90;;;;;;480027;245;29221;-79
2023/07/01 05:58:49;;;;;;;3.27;2.40;;;16.20;99.90;;;;;;479932;248;29237;-80
2023/07/01 06:00:50;;;;;;;4.20;2.70;;;16.10;99.90;;;;;;479907;248;29389;-79
2023/07/01 06:02:51;;;;;;;5.57;3.30;;;16.10;99.90;;;;;;479944;248;29180;-80
2023/07/01 06:04:53;;;;;;;9.27;2.57;;;16.10;99.90;;;;;;479918;248;28783;-80
2023/07/01 06:06:54;;;;;;;5.43;3.33;;;16.00;99.90;;;;;;479926;248;28725;-79
2023/07/01 06:08:55;;;;;;;3.33;2.60;;;15.90;99.90;;;;;;479933;248;28757;-79
2023/07/01 06:10:56;;;;;;;2.90;2.70;;;15.90;99.90;;;;;;479951;248;28867;-79
2023/07/01 06:12:58;;;;;;;4.93;2.60;;;16.00;99.90;;;;;;479923;248;28703;-79
2023/07/01 06:14:59;;;;;;;2.87;2.60;;;16.10;99.90;;;;;;479925;248;28772;-79
2023/07/01 06:17:00;;;;;;;3.03;2.10;;;16.10;99.90;;;;;;479911;248;28708;-79
2023/07/01 06:19:01;;;;;;;3.23;2.50;;;16.10;99.90;;;;;;479854;248;28735;-79
2023/07/01 06:21:06;;;;;;;3.57;2.60;;;16.20;99.90;;;;;;479906;248;29273;-79
2023/07/01 06:23:04;;;;;;;3.07;2.73;;;16.20;99.90;;;;;;479641;248;29153;-79
2023/07/01 06:25:05;;;;;;;3.97;2.53;;;16.30;99.90;;;;;;479912;242;29334;-79
2023/07/01 06:27:06;;;;;;;3.57;3.03;;;16.40;99.90;;;;;;479622;248;29161;-79
2023/07/01 06:29:08;;;;;;;4.70;3.00;;;16.60;99.90;;;;;;479943;248;28725;-80
2023/07/01 06:31:09;;;;;;;11.63;2.93;;;16.60;99.90;;;;;;479951;247;28771;-79
2023/07/01 06:33:10;;;;;;;3.47;3.07;;;16.80;99.90;;;;;;479986;248;28721;-79
2023/07/01 06:35:11;;;;;;;6.80;2.83;;;16.90;99.90;;;;;;479914;248;28771;-80
2023/07/01 06:37:13;;;;;;;5.80;2.37;;;17.00;99.90;;;;;;479929;248;28733;-80
2023/07/01 06:39:14;;;;;;;3.70;2.60;;;17.20;99.90;;;;;;479957;248;28721;-79
2023/07/01 06:41:15;;;;;;;6.63;2.30;;;17.30;99.90;;;;;;479833;245;28827;-79
2023/07/01 06:43:17;;;;;;;3.17;2.70;;;17.60;99.90;;;;;;479877;248;28852;-79
2023/07/01 06:45:18;;;;;;;3.43;2.00;;;17.70;99.90;;;;;;479929;248;29225;-79
2023/07/01 06:47:19;;;;;;;3.83;2.50;;;17.90;99.90;;;;;;479914;248;29250;-79
2023/07/01 06:49:20;;;;;;;2.63;2.30;;;17.90;99.90;;;;;;479934;247;29301;-79
2023/07/01 06:51:22;;;;;;;2.70;2.43;;;17.80;99.90;;;;;;479898;248;29365;-81
2023/07/01 06:53:23;;;;;;;7.20;2.80;;;17.90;99.90;;;;;;479860;242;28803;-79
2023/07/01 06:55:24;;;;;;;2.90;2.27;;;17.80;99.90;;;;;;479893;248;28838;-79
2023/07/01 06:57:25;;;;;;;3.03;2.73;;;17.80;99.90;;;;;;479081;248;28709;-79
2023/07/01 06:59:27;;;;;;;4.67;2.30;;;17.60;99.90;;;;;;478947;248;28752;-78
2023/07/01 07:01:28;;;;;;;5.03;3.07;;;17.60;99.90;;;;;;478805;248;28763;-79
2023/07/01 07:03:29;;;;;;;10.50;2.60;;;17.60;99.90;;;;;;478957;246;28761;-79
2023/07/01 07:05:32;;;;;;;3.27;2.40;;;17.50;99.90;;;;;;478925;248;28755;-79
2023/07/01 07:07:32;;;;;;;4.40;2.50;;;17.60;99.90;;;;;;478817;248;28714;-79
2023/07/01 07:09:33;;;;;;;3.63;2.30;;;17.40;99.90;;;;;;478939;246;29380;-79
2023/07/01 07:11:34;;;;;;;18.50;3.13;;;17.40;99.90;;;;;;478875;248;29373;-78
2023/07/01 07:13:35;;;;;;;5.33;2.63;;;17.30;99.90;;;;;;478945;248;29186;-79
2023/07/01 07:15:38;;;;;;;6.77;2.30;;;17.30;99.90;;;;;;478923;248;28761;-78
2023/07/01 07:17:38;;;;;;;4.50;2.83;;;17.30;99.90;;;;;;478881;248;28721;-79
2023/07/01 07:19:39;;;;;;;5.50;2.30;;;17.30;99.90;;;;;;478968;248;28840;-79
2023/07/01 07:21:40;;;;;;;3.30;2.30;;;17.30;99.90;;;;;;478970;246;28761;-78
2023/07/01 07:23:42;;;;;;;2.87;2.60;;;17.40;99.90;;;;;;478956;248;28789;-79
2023/07/01 07:25:43;;;;;;;5.90;3.87;;;17.40;99.90;;;;;;478889;245;28858;-79
2023/07/01 07:27:44;;;;;;;6.57;3.20;;;17.40;99.90;;;;;;478834;248;28725;-79
2023/07/01 07:29:45;;;;;;;7.43;2.67;;;17.40;99.90;;;;;;478947;248;28790;-79
2023/07/01 07:31:47;;;;;;;3.60;2.60;;;17.30;99.90;;;;;;478993;246;28844;-79
2023/07/01 07:33:48;;;;;;;2.60;2.20;;;17.50;99.90;;;;;;478894;248;29183;-79
2023/07/01 07:35:49;;;;;;;4.60;2.30;;;17.60;99.90;;;;;;478959;248;29245;-78
2023/07/01 07:37:51;;;;;;;31.83;5.67;;;17.60;99.90;;;;;;478972;248;29176;-79
2023/07/01 07:39:53;;;;;;;9.87;3.10;;;17.70;99.90;;;;;;478941;248;28862;-79
2023/07/01 07:41:53;;;;;;;22.43;4.13;;;17.80;99.90;;;;;;478905;248;28873;-79
2023/07/01 07:43:54;;;;;;;4.80;2.80;;;18.10;99.90;;;;;;478963;248;28743;-79
2023/07/01 07:45:55;;;;;;;4.87;2.47;;;18.50;99.90;;;;;;478942;248;28863;-79
2023/07/01 07:47:57;;;;;;;6.77;3.13;;;18.80;99.90;;;;;;478952;248;28706;-79
2023/07/01 07:49:58;;;;;;;5.33;2.57;;;18.80;99.90;;;;;;478875;248;28756;-79
2023/07/01 07:52:01;;;;;;;4.73;2.10;;;18.80;99.90;;;;;;478927;243;29458;-79
2023/07/01 07:54:00;;;;;;;3.13;2.20;;;18.70;99.90;;;;;;478852;248;28713;-79
2023/07/01 07:56:02;;;;;;;3.20;2.60;;;18.80;99.90;;;;;;478844;248;28842;-79
2023/07/01 07:58:03;;;;;;;2.30;2.10;;;18.90;99.90;;;;;;478797;248;29157;-79
2023/07/01 08:00:04;;;;;;;7.77;2.47;;;18.70;99.90;;;;;;478801;248;29236;-79
2023/07/01 08:02:05;;;;;;;2.40;2.20;;;18.60;99.90;;;;;;478899;248;29411;-79
2023/07/01 08:04:07;;;;;;;4.80;2.40;;;18.70;99.90;;;;;;478959;248;28715;-79
2023/07/01 08:06:08;;;;;;;2.47;2.23;;;19.00;99.90;;;;;;478972;248;28836;-78
2023/07/01 08:08:09;;;;;;;2.60;2.10;;;19.10;99.90;;;;;;478985;248;28830;-79
2023/07/01 08:10:10;;;;;;;6.50;2.50;;;19.30;99.90;;;;;;478948;242;28855;-78
2023/07/01 08:12:12;;;;;;;4.00;2.23;;;19.30;99.90;;;;;;478969;248;28732;-79
2023/07/01 08:14:13;;;;;;;4.47;2.50;;;19.40;99.90;;;;;;478976;248;28801;-79
2023/07/01 08:16:14;;;;;;;7.97;2.40;;;19.50;99.90;;;;;;478946;248;28843;-79
2023/07/01 08:18:16;;;;;;;2.10;2.00;;;19.70;99.90;;;;;;478965;248;28717;-79
2023/07/01 08:20:17;;;;;;;3.37;2.10;;;19.80;99.90;;;;;;478933;248;28744;-79
2023/07/01 08:22:18;;;;;;;7.40;3.30;;;19.60;99.90;;;;;;478764;248;30151;-79
2023/07/01 08:24:21;;;;;;;5.60;2.30;;;19.30;99.90;;;;;;478930;248;29273;-79
2023/07/01 08:26:20;;;;;;;6.13;2.23;;;19.20;99.90;;;;;;478852;248;29357;-79
2023/07/01 08:28:22;;;;;;;6.60;2.17;;;18.90;99.90;;;;;;478956;248;29306;-80
2023/07/01 08:30:23;;;;;;;3.10;2.10;;;18.90;99.90;;;;;;478957;248;28749;-79
2023/07/01 08:32:24;;;;;;;4.50;2.00;;;19.20;99.90;;;;;;478949;248;28724;-79
2023/07/01 08:34:25;;;;;;;2.90;1.90;;;19.30;99.90;;;;;;478964;247;28728;-79
2023/07/01 08:36:27;;;;;;;2.20;1.80;;;19.30;99.90;;;;;;478982;248;28812;-80
2023/07/01 08:38:31;;;;;;;2.47;2.27;;;19.30;99.90;;;;;;478952;247;28723;-79
2023/07/01 08:40:32;;;;;;;3.30;2.13;;;19.20;99.90;;;;;;478974;248;29245;-79
2023/07/01 08:42:33;;;;;;;3.00;2.30;;;19.20;99.90;;;;;;478956;248;29329;-79
2023/07/01 08:44:34;;;;;;;4.13;1.80;;;19.10;99.90;;;;;;478944;248;28797;-79
2023/07/01 08:46:36;;;;;;;2.67;1.80;;;19.20;99.90;;;;;;478948;248;28746;-79
2023/07/01 08:48:37;;;;;;;4.60;2.30;;;19.10;99.90;;;;;;478768;245;28747;-79
2023/07/01 08:50:38;;;;;;;4.67;2.40;;;19.10;99.90;;;;;;478978;248;28794;-79
2023/07/01 08:52:40;;;;;;;3.63;2.07;;;18.70;99.90;;;;;;478934;248;28843;-78
2023/07/01 08:54:41;;;;;;;3.70;2.10;;;18.90;99.90;;;;;;478813;248;28788;-79
2023/07/01 08:56:42;;;;;;;6.27;2.57;;;19.20;99.90;;;;;;478925;246;28748;-79
2023/07/01 08:58:43;;;;;;;3.30;2.10;;;19.10;99.90;;;;;;478952;248;29181;-79
2023/07/01 09:00:44;;;;;;;5.80;2.10;;;18.90;99.90;;;;;;478739;248;28709;-79
2023/07/01 09:02:46;;;;;;;6.30;2.13;;;18.90;99.90;;;;;;478696;245;29312;-79
2023/07/01 09:04:47;;;;;;;8.90;2.43;;;18.90;99.90;;;;;;478956;246;29169;-79
2023/07/01 09:06:48;;;;;;;19.67;4.93;;;19.00;99.90;;;;;;478484;245;29256;-79
2023/07/01 09:08:49;;;;;;;4.77;2.30;;;19.10;99.90;;;;;;478944;248;28768;-78
2023/07/01 09:10:51;;;;;;;5.40;2.70;;;19.00;99.90;;;;;;478983;248;28701;-79
2023/07/01 09:12:52;;;;;;;5.60;2.43;;;18.80;99.90;;;;;;478967;248;28850;-78
2023/07/01 09:14:53;;;;;;;5.13;2.20;;;18.60;99.90;;;;;;478880;248;28704;-79
2023/07/01 09:16:54;;;;;;;3.40;2.30;;;18.60;99.90;;;;;;478923;246;28745;-79
2023/07/01 09:18:56;;;;;;;4.27;2.17;;;18.50;99.90;;;;;;478903;248;29188;-79
2023/07/01 09:20:57;;;;;;;36.83;5.07;;;18.70;99.90;;;;;;478665;248;28809;-79
2023/07/01 09:22:59;;;;;;;10.80;2.50;;;18.60;99.90;;;;;;478905;243;28759;-80
2023/07/01 09:24:59;;;;;;;22.33;3.53;;;18.50;99.90;;;;;;478920;248;29256;-79
2023/07/01 09:27:01;;;;;;;18.93;3.87;;;18.70;99.90;;;;;;478853;248;29322;-80
2023/07/01 09:29:02;;;;;;;7.13;2.70;;;18.70;99.90;;;;;;478981;248;29245;-79
2023/07/01 09:31:03;;;;;;;9.40;2.20;;;18.50;99.90;;;;;;478963;248;28735;-79
2023/07/01 09:33:04;;;;;;;16.93;2.20;;;18.50;99.90;;;;;;478839;248;28814;-79
2023/07/01 09:35:06;;;;;;;3.90;2.40;;;18.50;99.90;;;;;;474976;246;36085;-79
2023/07/01 09:37:07;;;;;;;4.60;1.90;;;18.40;99.90;;;;;;478907;248;27526;-79
2023/07/01 09:39:08;;;;;;;5.20;2.27;;;18.40;99.90;;;;;;478945;248;28760;-80
2023/07/01 09:41:09;;;;;;;4.13;2.27;;;18.30;99.90;;;;;;478963;248;28780;-79
2023/07/01 09:43:11;;;;;;;2.77;2.10;;;18.40;99.90;;;;;;478955;248;28849;-80
2023/07/01 09:45:12;;;;;;;2.27;2.07;;;18.30;99.90;;;;;;478972;246;28731;-80
2023/07/01 09:47:18;;;;;;;4.40;2.07;;;18.50;99.90;;;;;;478905;248;29292;-80
2023/07/01 09:49:14;;;;;;;2.57;2.00;;;18.60;99.90;;;;;;478638;248;29294;-78
2023/07/01 09:51:16;;;;;;;2.93;2.17;;;18.60;99.90;;;;;;478962;248;29265;-79
2023/07/01 09:53:17;;;;;;;9.30;2.57;;;18.80;99.90;;;;;;478887;248;29407;-79
2023/07/01 09:55:18;;;;;;;4.40;2.30;;;18.60;99.90;;;;;;478927;248;28763;-79
2023/07/01 09:57:19;;;;;;;5.10;2.40;;;18.50;99.90;;;;;;478939;248;28761;-78
2023/07/01 09:59:21;;;;;;;4.23;2.50;;;18.40;99.90;;;;;;478943;248;28738;-79
2023/07/01 10:01:22;;;;;;;3.37;2.10;;;18.70;99.90;;;;;;478966;248;28733;-80
2023/07/01 10:03:23;;;;;;;3.27;2.17;;;19.00;99.90;;;;;;478862;248;28776;-78
2023/07/01 10:05:24;;;;;;;4.10;2.40;;;19.20;99.90;;;;;;478946;248;28710;-78
2023/07/01 10:07:26;;;;;;;5.73;2.70;;;19.30;99.90;;;;;;478901;248;28745;-78
2023/07/01 10:09:27;;;;;;;3.07;2.40;;;19.00;99.90;;;;;;478700;248;28809;-79
2023/07/01 10:11:29;;;;;;;5.53;2.53;;;18.80;99.90;;;;;;478941;245;28782;-79
2023/07/01 10:13:29;;;;;;;3.40;2.10;;;19.00;99.90;;;;;;478850;248;29238;-79
2023/07/01 10:15:31;;;;;;;6.83;2.60;;;18.90;99.90;;;;;;478929;248;29268;-80
2023/07/01 10:17:32;;;;;;;6.40;2.30;;;19.00;99.90;;;;;;478933;248;29227;-79
2023/07/01 10:19:33;;;;;;;6.10;2.70;;;19.00;99.90;;;;;;478877;248;28833;-78
2023/07/01 10:21:34;;;;;;;2.60;1.70;;;19.00;99.90;;;;;;478954;248;28812;-79
2023/07/01 10:23:36;;;;;;;3.40;2.40;;;19.20;99.90;;;;;;478843;248;28747;-79
2023/07/01 10:25:37;;;;;;;2.63;2.00;;;19.10;99.90;;;;;;478946;248;28711;-79
2023/07/01 10:27:38;;;;;;;6.13;2.60;;;19.20;99.90;;;;;;478932;246;28811;-79
2023/07/01 10:29:39;;;;;;;5.10;2.80;;;19.20;99.90;;;;;;478932;248;29300;-79
2023/07/01 10:31:41;;;;;;;3.63;2.33;;;19.30;99.90;;;;;;478956;248;28805;-79
2023/07/01 10:33:42;;;;;;;2.97;2.10;;;19.20;99.90;;;;;;478941;248;28836;-79
2023/07/01 10:35:43;;;;;;;2.07;1.80;;;19.20;99.90;;;;;;478917;242;28792;-79